createdAt,value
2022-08-17T00:02:27.287Z,66.20
2022-08-17T00:05:33.625Z,66.23
2022-08-17T00:08:42.469Z,66.32
2022-08-17T00:12:34.982Z,66.41
2022-08-17T00:15:10.590Z,66.34
2022-08-17T00:19:01.314Z,66.35
2022-08-17T00:22:29.462Z,66.31
2022-08-17T00:25:08.107Z,66.25
2022-08-17T00:28:12.328Z,66.30
2022-08-17T00:31:15.493Z,66.34
2022-08-17T00:34:19.015Z,66.35
2022-08-17T00:37:22.043Z,66.21
2022-08-17T00:40:25.018Z,66.29
2022-08-17T00:43:35.855Z,66.24
2022-08-17T00:46:41.080Z,66.02
2022-08-17T00:49:43.965Z,66.13
2022-08-17T00:52:54.998Z,66.21
2022-08-17T00:56:01.762Z,66.23
2022-08-17T00:59:07.702Z,66.22
2022-08-17T01:02:14.725Z,66.30
2022-08-17T01:05:25.560Z,66.47
2022-08-17T01:08:30.629Z,66.41
2022-08-17T01:11:36.228Z,66.29
2022-08-17T01:14:40.548Z,66.20
2022-08-17T01:17:45.259Z,66.15
2022-08-17T01:20:53.687Z,66.24
2022-08-17T01:23:57.054Z,66.32
2022-08-17T01:27:00.780Z,66.24
2022-08-17T01:30:58.839Z,66.31
2022-08-17T01:33:32.496Z,66.32
2022-08-17T01:36:37.669Z,66.31
2022-08-17T01:39:45.840Z,66.17
2022-08-17T01:42:56.026Z,66.22
2022-08-17T01:46:02.424Z,66.28
2022-08-17T01:49:08.397Z,66.36
2022-08-17T01:52:12.267Z,66.19
2022-08-17T01:55:25.889Z,66.33
2022-08-17T01:58:32.271Z,66.33
2022-08-17T02:01:36.105Z,66.26
2022-08-17T02:04:39.065Z,66.29
2022-08-17T02:07:47.992Z,66.30
2022-08-17T02:11:06.201Z,66.32
2022-08-17T02:14:14.602Z,66.34
2022-08-17T02:17:17.531Z,66.35
2022-08-17T02:20:41.724Z,66.38
2022-08-17T02:23:47.756Z,66.42
2022-08-17T02:26:50.693Z,66.38
2022-08-17T02:29:53.613Z,66.35
2022-08-17T02:32:56.577Z,66.30
2022-08-17T02:35:59.744Z,66.28
2022-08-17T02:39:05.809Z,66.30
2022-08-17T02:42:08.825Z,66.30
2022-08-17T02:45:18.199Z,66.33
2022-08-17T02:48:28.157Z,66.33
2022-08-17T02:51:35.338Z,66.24
2022-08-17T02:54:41.442Z,66.34
2022-08-17T02:57:45.579Z,66.44
2022-08-17T03:00:48.747Z,66.50
2022-08-17T03:03:51.686Z,66.54
2022-08-17T03:06:54.585Z,66.57
2022-08-17T03:09:57.486Z,66.62
2022-08-17T03:13:00.570Z,66.62
2022-08-17T03:16:03.648Z,66.67
2022-08-17T03:19:06.506Z,66.72
2022-08-17T03:22:36.085Z,66.62
2022-08-17T03:25:36.725Z,66.69
2022-08-17T03:28:41.594Z,66.69
2022-08-17T03:31:46.927Z,66.60
2022-08-17T03:34:49.875Z,66.64
2022-08-17T03:38:00.531Z,66.57
2022-08-17T03:41:06.079Z,66.50
2022-08-17T03:44:09.163Z,66.51
2022-08-17T03:47:30.471Z,66.43
2022-08-17T03:50:51.817Z,66.45
2022-08-17T03:54:16.662Z,66.47
2022-08-17T03:57:19.869Z,66.60
2022-08-17T04:00:22.790Z,66.65
2022-08-17T04:03:25.653Z,66.68
2022-08-17T04:06:28.782Z,66.79
2022-08-17T04:09:31.647Z,66.71
2022-08-17T04:12:47.894Z,66.85
2022-08-17T04:15:50.829Z,66.90
2022-08-17T04:18:53.787Z,66.89
2022-08-17T04:21:57.924Z,66.89
2022-08-17T04:25:15.987Z,66.97
2022-08-17T04:28:19.891Z,66.89
2022-08-17T04:31:22.982Z,66.89
2022-08-17T04:34:25.954Z,67.06
2022-08-17T04:37:28.844Z,67.12
2022-08-17T04:40:50.585Z,67.15
2022-08-17T04:43:58.502Z,67.32
2022-08-17T04:47:01.439Z,67.34
2022-08-17T04:50:04.625Z,67.37
2022-08-17T04:53:07.561Z,67.51
2022-08-17T04:56:16.899Z,67.53
2022-08-17T04:59:22.762Z,67.80
2022-08-17T05:02:25.657Z,67.87
2022-08-17T05:05:32.137Z,68.09
2022-08-17T05:08:35.283Z,68.19
2022-08-17T05:11:38.429Z,68.33
2022-08-17T05:14:47.992Z,68.42
2022-08-17T05:17:50.836Z,68.50
2022-08-17T05:20:54.012Z,68.52
2022-08-17T05:23:58.627Z,68.64
2022-08-17T05:27:06.461Z,68.79
2022-08-17T05:30:10.126Z,68.95
2022-08-17T05:33:22.561Z,68.92
2022-08-17T05:36:43.306Z,69.03
2022-08-17T05:39:47.332Z,69.24
2022-08-17T05:42:51.103Z,69.24
2022-08-17T05:46:15.359Z,69.27
2022-08-17T05:49:27.327Z,69.43
2022-08-17T05:52:37.639Z,69.56
2022-08-17T05:55:55.740Z,69.64
2022-08-17T05:59:20.043Z,69.76
2022-08-17T06:03:08.326Z,69.99
2022-08-17T06:06:40.841Z,69.93
2022-08-17T06:10:03.051Z,70.16
2022-08-17T06:13:11.985Z,70.18
2022-08-17T06:16:33.019Z,70.21
2022-08-17T06:19:46.324Z,70.18
2022-08-17T06:22:55.865Z,70.16
2022-08-17T06:26:11.946Z,70.12
2022-08-17T06:29:19.339Z,70.19
2022-08-17T06:36:37.667Z,70.08
2022-08-17T06:39:52.787Z,70.04
2022-08-17T06:43:20.516Z,69.89
2022-08-17T06:46:49.032Z,69.95
2022-08-17T06:50:05.568Z,69.83
2022-08-17T06:53:17.736Z,69.90
2022-08-17T06:56:53.013Z,69.79
2022-08-17T07:00:08.969Z,69.85
2022-08-17T07:03:16.536Z,69.85
2022-08-17T07:06:28.101Z,69.60
2022-08-17T07:09:37.389Z,69.53
2022-08-17T07:12:43.404Z,69.41
2022-08-17T07:15:51.806Z,69.28
2022-08-17T07:18:59.541Z,69.28
2022-08-17T07:22:18.099Z,69.10
2022-08-17T07:25:21.758Z,68.63
2022-08-17T07:28:26.396Z,68.57
2022-08-17T07:31:31.667Z,68.33
2022-08-17T07:35:13.055Z,68.20
2022-08-17T07:38:26.995Z,67.90
2022-08-17T07:41:58.103Z,67.71
2022-08-17T07:45:23.088Z,67.59
2022-08-17T07:48:27.239Z,67.58
2022-08-17T07:51:33.537Z,67.26
2022-08-17T07:54:46.777Z,67.44
2022-08-17T07:58:03.660Z,67.22
2022-08-17T08:01:15.480Z,67.27
2022-08-17T08:08:01.688Z,66.35
2022-08-17T08:11:28.452Z,66.10
2022-08-17T08:14:38.392Z,65.74
2022-08-17T08:17:50.656Z,65.67
2022-08-17T08:20:59.448Z,65.00
2022-08-17T08:24:59.080Z,64.57
2022-08-17T08:28:38.430Z,63.93
2022-08-17T08:32:21.961Z,63.61
2022-08-17T08:35:32.071Z,63.43
2022-08-17T08:38:50.103Z,63.01
2022-08-17T08:42:18.444Z,62.75
2022-08-17T08:45:34.173Z,62.57
2022-08-17T08:49:17.074Z,62.48
2022-08-17T08:52:48.218Z,62.11
2022-08-17T08:55:56.923Z,61.75
2022-08-17T08:59:26.183Z,61.63
2022-08-17T09:02:38.290Z,61.90
2022-08-17T09:05:56.668Z,61.92
2022-08-17T09:09:02.938Z,61.70
2022-08-17T09:12:18.972Z,61.25
2022-08-17T09:15:29.855Z,60.72
2022-08-17T09:19:03.367Z,60.37
2022-08-17T09:22:12.236Z,59.99
2022-08-17T09:25:44.276Z,60.08
2022-08-17T09:28:51.328Z,59.10
2022-08-17T09:32:01.735Z,58.85
2022-08-17T09:35:14.562Z,58.49
2022-08-17T09:38:36.285Z,57.97
2022-08-17T09:42:10.344Z,57.38
2022-08-17T09:45:17.041Z,57.24
2022-08-17T09:48:46.281Z,57.19
2022-08-17T09:51:55.588Z,56.94
2022-08-17T09:55:01.065Z,57.09
2022-08-17T09:58:28.989Z,57.58
2022-08-17T10:01:43.207Z,57.95
2022-08-17T10:04:58.266Z,57.14
2022-08-17T10:08:08.684Z,57.24
2022-08-17T10:11:17.505Z,57.04
2022-08-17T10:14:37.457Z,56.85
2022-08-17T10:18:08.711Z,56.58
2022-08-17T10:21:33.772Z,56.11
2022-08-17T10:25:21.761Z,55.68
2022-08-17T10:28:29.744Z,55.50
2022-08-17T10:31:46.505Z,55.42
2022-08-17T10:35:16.742Z,54.79
2022-08-17T10:38:30.127Z,54.57
2022-08-17T10:41:45.369Z,54.79
2022-08-17T10:45:00.544Z,54.96
2022-08-17T10:48:07.262Z,55.47
2022-08-17T10:51:38.090Z,56.28
2022-08-17T10:54:51.903Z,56.51
2022-08-17T10:58:22.094Z,56.69
2022-08-17T11:01:34.319Z,56.66
2022-08-17T11:04:44.109Z,56.65
2022-08-17T11:08:05.593Z,56.52
2022-08-17T11:11:20.405Z,55.82
2022-08-17T11:14:36.394Z,55.43
2022-08-17T11:17:58.467Z,54.81
2022-08-17T11:21:20.540Z,53.96
2022-08-17T11:24:43.415Z,53.41
2022-08-17T11:28:04.431Z,53.16
2022-08-17T11:31:38.323Z,52.77
2022-08-17T11:34:44.650Z,52.54
2022-08-17T11:38:06.384Z,52.23
2022-08-17T11:41:32.293Z,51.95
2022-08-17T11:44:56.437Z,51.90
2022-08-17T11:48:32.432Z,51.47
2022-08-17T11:52:05.131Z,50.65
2022-08-17T11:55:37.471Z,50.04
2022-08-17T11:58:45.060Z,49.95
2022-08-17T12:01:55.835Z,49.53
2022-08-17T12:05:26.153Z,49.65
2022-08-17T12:08:32.701Z,49.37
2022-08-17T12:11:58.616Z,49.13
2022-08-17T12:15:12.569Z,48.05
2022-08-17T12:18:41.764Z,47.68
2022-08-17T12:21:57.761Z,47.44
2022-08-17T12:25:10.340Z,47.60
2022-08-17T12:28:44.146Z,47.96
2022-08-17T12:31:49.980Z,48.53
2022-08-17T12:34:53.976Z,48.45
2022-08-17T12:37:58.015Z,48.30
2022-08-17T12:41:22.464Z,48.76
2022-08-17T12:44:34.604Z,48.14
2022-08-17T12:47:38.545Z,47.80
2022-08-17T12:50:45.942Z,47.82
2022-08-17T12:53:54.887Z,47.73
2022-08-17T12:57:04.829Z,47.80
2022-08-17T13:00:16.304Z,47.48
2022-08-17T13:03:21.806Z,47.89
2022-08-17T13:06:34.637Z,47.82
2022-08-17T13:09:40.309Z,47.82
2022-08-17T13:12:43.527Z,48.19
2022-08-17T13:15:58.666Z,48.96
2022-08-17T13:19:13.070Z,49.13
2022-08-17T13:22:16.733Z,48.90
2022-08-17T13:25:19.735Z,49.06
2022-08-17T13:28:30.639Z,49.37
2022-08-17T13:31:51.821Z,49.35
2022-08-17T13:35:14.397Z,49.54
2022-08-17T13:38:41.127Z,49.69
2022-08-17T13:41:44.675Z,49.96
2022-08-17T13:44:47.543Z,50.41
2022-08-17T13:48:23.914Z,50.82
2022-08-17T13:51:30.052Z,50.53
2022-08-17T13:54:36.173Z,50.56
2022-08-17T13:57:46.955Z,50.57
2022-08-17T14:00:51.699Z,50.56
2022-08-17T14:03:55.275Z,50.62
2022-08-17T14:07:01.319Z,50.34
2022-08-17T14:10:07.379Z,50.65
2022-08-17T14:13:10.259Z,50.28
2022-08-17T14:16:13.484Z,50.05
2022-08-17T14:19:16.718Z,50.24
2022-08-17T14:22:27.042Z,49.81
2022-08-17T14:25:30.137Z,49.76
2022-08-17T14:28:33.130Z,49.48
2022-08-17T14:31:39.306Z,49.43
2022-08-17T14:34:42.948Z,49.39
2022-08-17T14:37:45.981Z,48.65
2022-08-17T14:40:49.309Z,48.68
2022-08-17T14:43:56.250Z,48.90
2022-08-17T14:46:59.235Z,48.70
2022-08-17T14:50:04.674Z,48.36
2022-08-17T14:53:14.320Z,48.38
2022-08-17T14:56:17.482Z,48.21
2022-08-17T14:59:20.333Z,48.16
2022-08-17T15:02:30.188Z,48.14
2022-08-17T15:05:46.390Z,48.00
2022-08-17T15:08:50.347Z,47.88
2022-08-17T15:11:54.015Z,48.17
2022-08-17T15:14:57.687Z,48.15
2022-08-17T15:18:01.248Z,48.25
2022-08-17T15:21:06.875Z,48.51
2022-08-17T15:24:09.850Z,48.90
2022-08-17T15:27:13.057Z,49.20
2022-08-17T15:30:16.517Z,49.08
2022-08-17T15:33:24.077Z,49.25
2022-08-17T15:36:27.007Z,49.32
2022-08-17T15:39:30.003Z,49.35
2022-08-17T15:42:34.018Z,49.49
2022-08-17T15:45:37.757Z,49.58
2022-08-17T15:48:42.507Z,49.50
2022-08-17T15:51:46.120Z,49.56
2022-08-17T15:54:58.414Z,49.70
2022-08-17T15:58:01.600Z,50.00
2022-08-17T16:01:14.300Z,49.83
2022-08-17T16:04:28.437Z,49.86
2022-08-17T16:07:38.482Z,50.16
2022-08-17T16:10:41.645Z,50.21
2022-08-17T16:13:47.377Z,50.74
2022-08-17T16:16:59.176Z,50.96
2022-08-17T16:20:02.416Z,51.17
2022-08-17T16:23:05.630Z,51.55
2022-08-17T16:26:09.152Z,51.74
2022-08-17T16:29:13.078Z,52.00
2022-08-17T16:32:31.879Z,52.10
2022-08-17T16:36:37.660Z,52.07
2022-08-17T16:39:41.303Z,52.25
2022-08-17T16:42:46.146Z,52.33
2022-08-17T16:45:52.118Z,52.35
2022-08-17T16:48:57.179Z,52.65
2022-08-17T16:52:03.366Z,52.66
2022-08-17T16:55:09.025Z,53.15
2022-08-17T16:58:12.764Z,53.49
2022-08-17T17:01:15.894Z,53.47
2022-08-17T17:04:19.513Z,53.94
2022-08-17T17:07:44.174Z,54.27
2022-08-17T17:10:51.600Z,54.29
2022-08-17T17:14:01.653Z,54.47
2022-08-17T17:17:25.011Z,54.56
2022-08-17T17:20:35.523Z,54.57
2022-08-17T17:23:46.585Z,54.79
2022-08-17T17:27:07.515Z,54.94
2022-08-17T17:30:34.389Z,55.10
2022-08-17T17:33:43.587Z,55.08
2022-08-17T17:36:54.793Z,55.02
2022-08-17T17:40:02.284Z,54.98
2022-08-17T17:43:34.832Z,55.00
2022-08-17T17:46:40.007Z,55.00
2022-08-17T17:49:45.865Z,54.97
2022-08-17T17:52:59.662Z,55.04
2022-08-17T17:56:43.037Z,54.94
2022-08-17T17:59:59.533Z,55.06
2022-08-17T18:03:40.081Z,55.01
2022-08-17T18:06:57.816Z,55.11
2022-08-17T18:10:19.454Z,55.15
2022-08-17T18:13:50.724Z,55.21
2022-08-17T18:16:57.156Z,55.32
2022-08-17T18:20:00.253Z,55.29
2022-08-17T18:23:04.233Z,55.23
2022-08-17T18:26:07.294Z,55.29
2022-08-17T18:29:31.322Z,55.32
2022-08-17T18:32:36.430Z,55.19
2022-08-17T18:35:39.407Z,55.30
2022-08-17T18:38:43.964Z,55.30
2022-08-17T18:41:52.818Z,55.32
2022-08-17T18:44:56.276Z,55.44
2022-08-17T18:48:27.153Z,55.49
2022-08-17T18:51:50.341Z,55.75
2022-08-17T18:55:12.138Z,55.59
2022-08-17T18:58:17.887Z,55.69
2022-08-17T19:01:21.428Z,55.58
2022-08-17T19:05:02.446Z,55.72
2022-08-17T19:08:17.629Z,55.82
2022-08-17T19:11:31.790Z,55.90
2022-08-17T19:14:35.934Z,56.01
2022-08-17T19:17:52.428Z,56.08
2022-08-17T19:21:04.019Z,56.23
2022-08-17T19:24:13.686Z,56.29
2022-08-17T19:27:26.035Z,56.43
2022-08-17T19:30:37.945Z,56.50
2022-08-17T19:33:47.974Z,56.37
2022-08-17T19:37:00.349Z,56.56
2022-08-17T19:40:03.201Z,56.69
2022-08-17T19:43:21.066Z,56.89
2022-08-17T19:46:43.041Z,56.95
2022-08-17T19:50:47.371Z,56.97
2022-08-17T19:58:40.044Z,57.36
2022-08-17T20:02:58.965Z,57.52
2022-08-17T20:06:13.742Z,57.66
2022-08-17T20:10:13.624Z,57.59
2022-08-17T20:13:33.346Z,57.63
2022-08-17T20:16:39.768Z,57.84
2022-08-17T20:19:48.113Z,57.99
2022-08-17T20:23:04.169Z,58.01
2022-08-17T20:26:19.987Z,58.22
2022-08-17T20:29:39.870Z,58.24
2022-08-17T20:32:52.767Z,58.26
2022-08-17T20:36:19.699Z,58.37
2022-08-17T20:39:34.572Z,58.53
2022-08-17T20:42:39.591Z,58.69
2022-08-17T20:45:55.710Z,58.73
2022-08-17T20:49:11.123Z,58.90
2022-08-17T20:52:56.625Z,58.92
2022-08-17T20:56:00.951Z,59.03
2022-08-17T20:59:08.814Z,59.20
2022-08-17T21:02:21.647Z,59.27
2022-08-17T21:05:35.269Z,59.38
2022-08-17T21:08:57.696Z,59.48
2022-08-17T21:12:05.741Z,59.52
2022-08-17T21:15:53.720Z,59.62
2022-08-17T21:19:26.262Z,59.62
2022-08-17T21:22:38.353Z,59.68
2022-08-17T21:25:53.185Z,59.70
2022-08-17T21:29:31.151Z,59.78
2022-08-17T21:32:38.176Z,59.87
2022-08-17T21:35:49.532Z,59.93
2022-08-17T21:39:01.500Z,59.97
2022-08-17T21:42:06.703Z,60.00
2022-08-17T21:45:18.144Z,60.09
2022-08-17T21:48:27.324Z,60.24
2022-08-17T21:51:31.141Z,60.16
2022-08-17T21:54:38.697Z,60.23
2022-08-17T21:57:53.190Z,60.26
2022-08-17T22:01:23.518Z,60.31
2022-08-17T22:04:40.195Z,60.45
2022-08-17T22:07:58.916Z,60.50
2022-08-17T22:11:02.135Z,60.54
2022-08-17T22:14:16.753Z,60.75
2022-08-17T22:17:24.999Z,60.81
2022-08-17T22:20:28.006Z,60.89
2022-08-17T22:23:55.914Z,60.93
2022-08-17T22:27:07.670Z,61.05
2022-08-17T22:30:34.268Z,61.12
2022-08-17T22:33:41.622Z,61.22
2022-08-17T22:36:44.580Z,61.27
2022-08-17T22:39:57.481Z,61.35
2022-08-17T22:43:03.626Z,61.44
2022-08-17T22:46:08.717Z,61.39
2022-08-17T22:49:11.737Z,61.54
2022-08-17T22:52:57.920Z,61.53
2022-08-17T22:56:19.524Z,61.60
2022-08-17T22:59:56.179Z,61.67
2022-08-17T23:03:12.508Z,61.75
2022-08-17T23:06:15.471Z,61.92
2022-08-17T23:09:18.341Z,61.91
2022-08-17T23:12:26.443Z,62.02
2022-08-17T23:15:33.120Z,62.05
2022-08-17T23:18:37.478Z,61.98
2022-08-17T23:21:40.442Z,62.00
2022-08-17T23:24:48.559Z,62.08
2022-08-17T23:27:51.548Z,62.17
2022-08-17T23:30:54.606Z,62.01
2022-08-17T23:33:59.230Z,62.19
2022-08-17T23:37:02.316Z,62.03
2022-08-17T23:40:05.958Z,61.98
2022-08-17T23:43:24.825Z,62.08
2022-08-17T23:46:28.800Z,62.06
2022-08-17T23:49:32.445Z,62.03
2022-08-17T23:52:37.852Z,62.15
2022-08-17T23:55:40.781Z,62.20
2022-08-17T23:58:44.827Z,62.12
